createdAt,value
2022-11-06T00:00:50.903Z,12.50
2022-11-06T00:03:22.204Z,15.40
2022-11-06T00:06:10.703Z,14.30
2022-11-06T00:08:42.760Z,15.50
2022-11-06T00:11:15.920Z,15.90
2022-11-06T00:13:48.335Z,12.80
2022-11-06T00:16:20.088Z,14.60
2022-11-06T00:18:52.008Z,13.70
2022-11-06T00:23:54.195Z,14.80
2022-11-06T00:26:26.675Z,12.50
2022-11-06T00:28:58.372Z,15.70
2022-11-06T00:31:31.886Z,13.50
2022-11-06T00:34:03.834Z,10.50
2022-11-06T00:36:35.246Z,11.10
2022-11-06T00:39:06.596Z,11.30
2022-11-06T00:41:37.685Z,11.60
2022-11-06T00:44:10.616Z,10.40
2022-11-06T00:46:41.727Z,12.50
2022-11-06T00:49:13.061Z,14.40
2022-11-06T00:51:44.111Z,12.40
2022-11-06T00:54:15.778Z,11.00
2022-11-06T00:56:46.970Z,15.30
2022-11-06T00:59:17.751Z,13.80
2022-11-06T01:01:48.662Z,10.20
2022-11-06T01:09:23.545Z,9.90
2022-11-06T01:12:13.768Z,9.70
2022-11-06T01:14:45.964Z,8.20
2022-11-06T01:17:17.421Z,9.20
2022-11-06T01:19:48.637Z,13.70
2022-11-06T01:22:19.523Z,14.30
2022-11-06T01:24:50.384Z,14.10
2022-11-06T01:27:28.518Z,8.40
2022-11-06T01:29:59.396Z,6.90
2022-11-06T01:32:30.406Z,9.00
2022-11-06T01:35:01.470Z,10.70
2022-11-06T01:37:32.491Z,8.00
2022-11-06T01:40:03.552Z,8.20
2022-11-06T01:42:34.612Z,8.80
2022-11-06T01:45:35.511Z,5.30
2022-11-06T01:48:08.736Z,8.00
2022-11-06T01:50:40.141Z,6.20
2022-11-06T01:53:12.413Z,7.70
2022-11-06T01:55:48.297Z,6.90
2022-11-06T01:58:22.416Z,8.70
2022-11-06T02:00:53.712Z,8.80
2022-11-06T02:03:25.154Z,9.40
2022-11-06T02:05:57.908Z,10.30
2022-11-06T02:08:29.655Z,9.70
2022-11-06T02:11:01.216Z,8.30
2022-11-06T02:14:03.184Z,8.70
2022-11-06T02:16:43.057Z,5.60
2022-11-06T02:19:44.159Z,6.70
2022-11-06T02:22:29.786Z,7.20
2022-11-06T02:25:25.285Z,8.30
2022-11-06T02:28:03.762Z,6.30
2022-11-06T02:30:42.400Z,7.70
2022-11-06T02:33:18.061Z,5.60
2022-11-06T02:35:54.543Z,6.80
2022-11-06T02:38:28.305Z,7.40
2022-11-06T02:41:03.518Z,7.90
2022-11-06T02:43:43.676Z,9.30
2022-11-06T02:46:19.896Z,6.40
2022-11-06T02:48:56.122Z,9.40
2022-11-06T02:51:30.980Z,5.70
2022-11-06T02:54:06.537Z,6.70
2022-11-06T02:56:43.107Z,5.80
2022-11-06T02:59:19.679Z,8.20
2022-11-06T03:01:54.712Z,6.80
2022-11-06T03:04:29.675Z,13.60
2022-11-06T03:07:07.007Z,5.40
2022-11-06T03:09:38.063Z,7.90
2022-11-06T03:12:25.233Z,8.10
2022-11-06T03:15:01.243Z,6.60
2022-11-06T03:17:44.464Z,6.30
2022-11-06T03:20:22.627Z,6.80
2022-11-06T03:23:00.086Z,5.50
2022-11-06T03:25:34.966Z,10.10
2022-11-06T03:28:11.866Z,6.40
2022-11-06T03:30:51.117Z,6.50
2022-11-06T03:33:27.504Z,5.00
2022-11-06T03:36:03.634Z,6.30
2022-11-06T03:38:42.174Z,5.50
2022-11-06T03:41:20.605Z,6.80
2022-11-06T03:43:57.463Z,6.80
2022-11-06T03:46:31.000Z,7.90
2022-11-06T03:49:04.479Z,6.20
2022-11-06T03:51:42.309Z,9.10
2022-11-06T03:54:19.953Z,6.90
2022-11-06T03:56:56.078Z,6.10
2022-11-06T03:59:33.108Z,4.80
2022-11-06T04:02:04.791Z,5.50
2022-11-06T04:04:39.932Z,5.20
2022-11-06T04:07:15.349Z,4.20
2022-11-06T04:10:11.767Z,5.90
2022-11-06T04:13:00.207Z,5.30
2022-11-06T04:15:35.990Z,6.50
2022-11-06T04:18:15.533Z,7.80
2022-11-06T04:21:12.455Z,7.10
2022-11-06T04:24:13.600Z,5.30
2022-11-06T04:26:54.092Z,8.10
2022-11-06T04:29:40.969Z,7.50
2022-11-06T04:32:18.910Z,5.50
2022-11-06T04:34:59.475Z,8.80
2022-11-06T04:37:37.830Z,7.10
2022-11-06T04:40:14.770Z,8.20
2022-11-06T04:42:51.493Z,7.20
2022-11-06T04:45:28.351Z,7.00
2022-11-06T04:48:00.800Z,7.50
2022-11-06T04:50:36.663Z,4.50
2022-11-06T04:53:10.506Z,7.00
2022-11-06T04:55:48.633Z,7.80
2022-11-06T04:58:19.469Z,10.40
2022-11-06T05:00:52.008Z,6.80
2022-11-06T05:03:23.122Z,8.10
2022-11-06T05:05:54.065Z,7.80
2022-11-06T05:08:26.131Z,11.30
2022-11-06T05:10:56.966Z,6.00
2022-11-06T05:13:28.065Z,6.00
2022-11-06T05:16:00.792Z,4.80
2022-11-06T05:18:32.106Z,7.40
2022-11-06T05:23:51.113Z,8.80
2022-11-06T05:26:22.054Z,6.20
2022-11-06T05:28:53.198Z,5.90
2022-11-06T05:31:24.910Z,6.20
2022-11-06T05:33:56.336Z,5.90
2022-11-06T05:36:27.728Z,7.10
2022-11-06T05:38:59.060Z,8.20
2022-11-06T05:41:30.269Z,9.40
2022-11-06T05:44:01.215Z,7.00
2022-11-06T05:46:48.232Z,5.70
2022-11-06T05:49:20.394Z,6.70
2022-11-06T05:51:51.524Z,8.10
2022-11-06T05:54:22.767Z,6.30
2022-11-06T05:56:53.670Z,6.60
2022-11-06T05:59:24.751Z,6.60
2022-11-06T06:01:55.964Z,6.80
2022-11-06T06:04:27.500Z,5.40
2022-11-06T06:09:28.916Z,7.80
2022-11-06T06:11:59.895Z,5.80
2022-11-06T06:14:30.635Z,6.20
2022-11-06T06:17:01.396Z,8.30
2022-11-06T06:19:32.367Z,6.20
2022-11-06T06:22:03.361Z,3.30
2022-11-06T06:24:35.410Z,7.90
2022-11-06T06:27:06.650Z,7.60
2022-11-06T06:29:37.587Z,9.60
2022-11-06T06:32:09.178Z,6.70
2022-11-06T06:34:40.082Z,6.10
2022-11-06T06:37:12.781Z,10.90
2022-11-06T06:39:45.514Z,7.00
2022-11-06T06:42:16.602Z,7.20
2022-11-06T06:44:47.938Z,4.70
2022-11-06T06:47:18.927Z,4.70
2022-11-06T06:49:49.643Z,6.90
2022-11-06T06:52:20.672Z,7.40
2022-11-06T06:54:51.542Z,7.10
2022-11-06T06:57:22.326Z,7.30
2022-11-06T06:59:53.037Z,7.90
2022-11-06T07:02:23.985Z,7.70
2022-11-06T07:04:57.427Z,7.50
2022-11-06T07:07:28.829Z,6.00
2022-11-06T07:09:59.655Z,8.90
2022-11-06T07:12:30.578Z,9.50
2022-11-06T07:15:01.865Z,12.60
2022-11-06T07:20:02.264Z,12.00
2022-11-06T07:22:37.247Z,10.10
2022-11-06T07:25:09.736Z,8.00
2022-11-06T07:27:41.477Z,10.50
2022-11-06T07:30:14.072Z,11.70
2022-11-06T07:32:44.874Z,10.30
2022-11-06T07:35:15.985Z,14.80
2022-11-06T07:37:46.955Z,16.90
2022-11-06T07:40:18.194Z,15.90
2022-11-06T07:42:49.163Z,34.50
2022-11-06T07:45:20.534Z,32.80
2022-11-06T07:47:55.130Z,34.50
2022-11-06T07:52:58.785Z,22.30
2022-11-06T07:55:30.033Z,23.00
2022-11-06T07:58:03.914Z,31.00
2022-11-06T08:00:34.808Z,14.60
2022-11-06T08:03:05.750Z,12.60
2022-11-06T08:05:36.719Z,9.40
2022-11-06T08:08:07.764Z,47.50
2022-11-06T08:13:11.543Z,18.00
2022-11-06T08:15:43.611Z,10.00
2022-11-06T08:18:15.332Z,8.90
2022-11-06T08:20:46.601Z,10.60
2022-11-06T08:23:17.480Z,10.30
2022-11-06T08:25:48.607Z,10.40
2022-11-06T08:28:19.461Z,9.30
2022-11-06T08:30:50.216Z,8.00
2022-11-06T08:33:22.772Z,9.70
2022-11-06T08:35:53.712Z,11.60
2022-11-06T08:38:24.565Z,11.10
2022-11-06T08:40:56.163Z,12.90
2022-11-06T08:43:27.658Z,14.10
2022-11-06T08:46:00.278Z,13.40
2022-11-06T08:48:31.479Z,11.90
2022-11-06T08:51:02.611Z,8.70
2022-11-06T08:53:33.853Z,16.40
2022-11-06T08:56:07.125Z,8.70
2022-11-06T08:58:38.056Z,11.80
2022-11-06T09:03:38.648Z,16.00
2022-11-06T09:06:11.641Z,14.50
2022-11-06T09:08:42.471Z,12.60
2022-11-06T09:11:13.468Z,16.90
2022-11-06T09:13:44.614Z,17.00
2022-11-06T09:18:47.157Z,15.70
2022-11-06T09:21:18.278Z,26.50
2022-11-06T09:26:19.747Z,22.60
2022-11-06T09:28:50.960Z,66.10
2022-11-06T09:31:22.014Z,82.70
2022-11-06T09:36:23.285Z,19.90
2022-11-06T09:38:54.286Z,43.60
2022-11-06T09:41:37.599Z,23.80
2022-11-06T09:44:21.615Z,21.90
2022-11-06T09:46:52.755Z,13.90
2022-11-06T09:49:27.312Z,13.30
2022-11-06T09:52:05.416Z,9.30
2022-11-06T09:54:41.218Z,8.60
2022-11-06T09:57:20.847Z,10.90
2022-11-06T09:59:52.956Z,11.40
2022-11-06T10:02:29.528Z,9.90
2022-11-06T10:05:07.064Z,7.90
2022-11-06T10:07:41.975Z,9.30
2022-11-06T10:10:18.322Z,9.50
2022-11-06T10:13:07.215Z,9.90
2022-11-06T10:15:41.968Z,10.20
2022-11-06T10:18:21.002Z,11.90
2022-11-06T10:20:55.313Z,13.80
2022-11-06T10:23:35.292Z,6.30
2022-11-06T10:26:16.020Z,9.60
2022-11-06T10:29:16.471Z,7.30
2022-11-06T10:31:56.993Z,9.10
2022-11-06T10:34:35.574Z,19.50
2022-11-06T10:37:11.577Z,11.30
2022-11-06T10:39:42.844Z,14.40
2022-11-06T10:44:51.151Z,13.10
2022-11-06T10:47:23.806Z,13.40
2022-11-06T10:49:56.923Z,15.70
2022-11-06T10:52:47.217Z,12.40
2022-11-06T10:55:40.835Z,14.60
2022-11-06T10:58:15.402Z,10.20
2022-11-06T11:00:46.735Z,15.20
2022-11-06T11:03:27.100Z,14.10
2022-11-06T11:05:58.261Z,11.50
2022-11-06T11:08:42.195Z,15.70
2022-11-06T11:11:26.012Z,13.50
2022-11-06T11:14:23.753Z,12.40
2022-11-06T11:16:55.876Z,21.00
2022-11-06T11:19:35.204Z,17.00
2022-11-06T11:22:18.361Z,17.10
2022-11-06T11:25:03.213Z,32.30
2022-11-06T11:27:37.876Z,17.70
2022-11-06T11:30:21.223Z,24.30
2022-11-06T11:32:55.213Z,32.90
2022-11-06T11:35:29.506Z,15.80
2022-11-06T11:38:14.824Z,28.80
2022-11-06T11:40:46.061Z,32.90
2022-11-06T11:43:25.734Z,18.80
2022-11-06T11:46:15.582Z,16.60
2022-11-06T11:48:48.813Z,38.30
2022-11-06T11:51:31.689Z,40.30
2022-11-06T11:54:07.267Z,17.50
2022-11-06T11:57:04.026Z,19.10
2022-11-06T11:59:44.626Z,20.10
2022-11-06T12:02:26.945Z,22.30
2022-11-06T12:05:01.319Z,27.20
2022-11-06T12:07:34.284Z,58.60
2022-11-06T12:10:29.690Z,20.30
2022-11-06T12:13:02.682Z,16.50
2022-11-06T12:15:42.482Z,42.30
2022-11-06T12:18:17.274Z,50.60
2022-11-06T12:20:53.852Z,25.30
2022-11-06T12:23:30.637Z,24.30
2022-11-06T12:26:10.349Z,14.20
2022-11-06T12:28:44.714Z,18.10
2022-11-06T12:31:21.974Z,36.10
2022-11-06T12:34:06.161Z,36.70
2022-11-06T12:36:46.938Z,31.50
2022-11-06T12:39:25.021Z,44.80
2022-11-06T12:41:58.126Z,68.00
2022-11-06T12:44:29.212Z,65.60
2022-11-06T12:49:56.367Z,36.50
2022-11-06T12:52:43.007Z,105.30
2022-11-06T12:55:23.884Z,21.60
2022-11-06T12:58:05.981Z,16.20
2022-11-06T13:00:47.717Z,25.60
2022-11-06T13:03:42.233Z,17.70
2022-11-06T13:06:19.730Z,18.60
2022-11-06T13:09:00.288Z,21.70
2022-11-06T13:11:42.286Z,18.60
2022-11-06T13:14:22.494Z,14.80
2022-11-06T13:17:02.086Z,14.20
2022-11-06T13:19:40.577Z,17.30
2022-11-06T13:22:19.400Z,17.70
2022-11-06T13:25:00.373Z,16.80
2022-11-06T13:27:39.829Z,17.30
2022-11-06T13:30:18.721Z,14.60
2022-11-06T13:33:00.110Z,17.90
2022-11-06T13:35:33.518Z,16.70
2022-11-06T13:38:08.061Z,17.40
2022-11-06T13:40:43.034Z,37.30
2022-11-06T13:43:19.803Z,18.50
2022-11-06T13:45:56.946Z,30.50
2022-11-06T13:51:15.201Z,13.90
2022-11-06T13:53:52.934Z,14.70
2022-11-06T13:56:44.507Z,17.60
2022-11-06T13:59:48.337Z,18.30
2022-11-06T14:02:37.760Z,12.80
2022-11-06T14:05:43.547Z,15.40
2022-11-06T14:08:22.187Z,13.70
2022-11-06T14:10:58.737Z,15.20
2022-11-06T14:13:33.323Z,15.80
2022-11-06T14:16:26.295Z,15.40
2022-11-06T14:19:05.296Z,14.30
2022-11-06T14:21:52.081Z,15.90
2022-11-06T14:24:40.950Z,13.30
2022-11-06T14:27:34.902Z,13.90
2022-11-06T14:30:08.202Z,13.00
2022-11-06T14:32:49.655Z,13.00
2022-11-06T14:35:53.297Z,13.40
2022-11-06T14:38:42.843Z,13.20
2022-11-06T14:41:50.620Z,10.80
2022-11-06T14:44:39.810Z,13.20
2022-11-06T14:47:33.506Z,15.60
2022-11-06T14:50:09.563Z,15.60
2022-11-06T14:52:50.162Z,15.00
2022-11-06T14:55:30.086Z,17.30
2022-11-06T14:58:15.385Z,17.90
2022-11-06T15:00:54.458Z,18.20
2022-11-06T15:03:30.439Z,14.70
2022-11-06T15:06:06.349Z,16.20
2022-11-06T15:08:58.554Z,11.90
2022-11-06T15:11:54.898Z,13.50
2022-11-06T15:14:56.885Z,11.90
2022-11-06T15:17:31.163Z,12.80
2022-11-06T15:20:16.130Z,15.50
2022-11-06T15:22:55.239Z,13.10
2022-11-06T15:25:28.580Z,12.00
2022-11-06T15:28:05.090Z,14.90
2022-11-06T15:30:47.277Z,16.40
2022-11-06T15:33:24.207Z,12.70
2022-11-06T15:35:56.992Z,13.90
2022-11-06T15:38:35.003Z,13.70
2022-11-06T15:41:07.192Z,13.00
2022-11-06T15:43:38.578Z,12.50
2022-11-06T15:46:19.770Z,9.40
2022-11-06T15:49:07.061Z,13.10
2022-11-06T15:51:41.310Z,12.00
2022-11-06T15:54:30.930Z,10.20
2022-11-06T15:57:03.897Z,9.80
2022-11-06T15:59:34.812Z,12.70
2022-11-06T16:02:16.274Z,11.60
2022-11-06T16:04:48.170Z,15.50
2022-11-06T16:07:20.847Z,11.70
2022-11-06T16:09:52.693Z,13.90
2022-11-06T16:12:23.794Z,16.20
2022-11-06T16:17:27.137Z,15.50
2022-11-06T16:20:04.202Z,14.30
2022-11-06T16:22:35.854Z,22.40
2022-11-06T16:25:08.831Z,21.90
2022-11-06T16:27:42.076Z,16.60
2022-11-06T16:30:25.660Z,14.40
2022-11-06T16:35:34.721Z,13.40
2022-11-06T16:38:42.016Z,15.30
2022-11-06T16:41:36.408Z,17.10
2022-11-06T16:44:31.659Z,12.10
2022-11-06T16:47:17.203Z,18.70
2022-11-06T16:49:53.881Z,13.50
2022-11-06T16:52:33.873Z,12.10
2022-11-06T16:55:10.334Z,13.90
2022-11-06T16:57:48.611Z,13.00
2022-11-06T17:00:27.244Z,11.20
2022-11-06T17:03:00.086Z,14.20
2022-11-06T17:05:33.892Z,9.00
2022-11-06T17:08:25.013Z,13.00
2022-11-06T17:10:57.213Z,28.80
2022-11-06T17:13:32.339Z,14.80
2022-11-06T17:16:05.343Z,12.50
2022-11-06T17:18:38.181Z,13.30
2022-11-06T17:21:13.832Z,12.60
2022-11-06T17:23:46.436Z,9.90
2022-11-06T17:26:20.709Z,11.60
2022-11-06T17:28:52.068Z,13.00
2022-11-06T17:31:24.777Z,12.10
2022-11-06T17:33:56.167Z,13.50
2022-11-06T17:36:29.816Z,12.50
2022-11-06T17:39:01.623Z,15.40
2022-11-06T17:41:32.784Z,14.00
2022-11-06T17:44:06.573Z,12.20
2022-11-06T17:46:40.276Z,14.80
2022-11-06T17:49:17.066Z,16.50
2022-11-06T17:51:53.677Z,13.60
2022-11-06T17:54:27.314Z,15.40
2022-11-06T17:56:59.477Z,15.70
2022-11-06T17:59:30.919Z,12.40
2022-11-06T18:02:02.407Z,12.90
2022-11-06T18:04:34.436Z,16.90
2022-11-06T18:07:05.588Z,16.50
2022-11-06T18:12:10.596Z,15.40
2022-11-06T18:14:41.902Z,35.30
2022-11-06T18:19:43.423Z,15.10
2022-11-06T18:22:14.535Z,12.80
2022-11-06T18:24:45.652Z,18.30
2022-11-06T18:27:16.958Z,16.20
2022-11-06T18:32:18.036Z,16.00
2022-11-06T18:34:49.240Z,16.50
2022-11-06T18:37:20.813Z,14.50
2022-11-06T18:39:51.902Z,21.70
2022-11-06T18:42:22.784Z,20.30
2022-11-06T18:44:53.856Z,20.20
2022-11-06T18:47:24.869Z,13.60
2022-11-06T18:49:55.627Z,15.90
2022-11-06T18:52:51.682Z,17.40
2022-11-06T18:55:17.636Z,14.30
2022-11-06T19:00:19.333Z,14.90
2022-11-06T19:02:50.754Z,15.00
2022-11-06T19:05:21.838Z,16.30
2022-11-06T19:07:57.652Z,13.50
2022-11-06T19:10:32.624Z,14.40
2022-11-06T19:13:04.384Z,12.70
2022-11-06T19:15:35.265Z,28.70
2022-11-06T19:18:06.672Z,18.30
2022-11-06T19:20:39.562Z,14.80
2022-11-06T19:23:14.369Z,18.20
2022-11-06T19:25:47.976Z,26.50
2022-11-06T19:28:21.821Z,17.00
2022-11-06T19:30:53.494Z,17.60
2022-11-06T19:33:24.365Z,22.50
2022-11-06T19:35:55.740Z,17.40
2022-11-06T19:38:26.991Z,15.50
2022-11-06T19:41:00.328Z,16.10
2022-11-06T19:43:36.449Z,21.70
2022-11-06T19:46:08.630Z,20.10
2022-11-06T19:48:41.059Z,20.50
2022-11-06T19:51:14.590Z,20.00
2022-11-06T19:53:45.962Z,19.70
2022-11-06T19:56:18.185Z,29.10
2022-11-06T19:58:50.296Z,39.90
2022-11-06T20:01:22.018Z,21.10
2022-11-06T20:03:52.996Z,20.20
2022-11-06T20:06:24.114Z,22.10
2022-11-06T20:08:55.155Z,27.10
2022-11-06T20:11:26.299Z,33.80
2022-11-06T20:13:57.386Z,36.50
2022-11-06T20:19:00.131Z,24.10
2022-11-06T20:21:31.407Z,19.80
2022-11-06T20:24:02.635Z,28.30
2022-11-06T20:26:33.624Z,27.00
2022-11-06T20:29:04.964Z,27.00
2022-11-06T20:31:36.776Z,27.00
2022-11-06T20:34:08.428Z,27.30
2022-11-06T20:36:39.613Z,30.20
2022-11-06T20:39:10.784Z,31.40
2022-11-06T20:41:44.131Z,29.90
2022-11-06T20:44:14.926Z,26.10
2022-11-06T20:46:47.749Z,24.90
2022-11-06T20:49:19.404Z,24.10
2022-11-06T20:52:12.577Z,23.10
2022-11-06T20:54:46.754Z,25.10
2022-11-06T20:57:18.347Z,24.00
2022-11-06T20:59:49.865Z,22.30
2022-11-06T21:02:20.890Z,22.20
2022-11-06T21:07:21.804Z,41.30
2022-11-06T21:09:52.918Z,35.10
2022-11-06T21:12:24.289Z,38.80
2022-11-06T21:14:57.058Z,49.40
2022-11-06T21:17:28.100Z,44.90
2022-11-06T21:19:58.988Z,48.10
2022-11-06T21:22:30.189Z,51.90
2022-11-06T21:25:01.534Z,41.40
2022-11-06T21:30:02.345Z,58.80
2022-11-06T21:32:33.283Z,61.60
2022-11-06T21:35:04.628Z,60.90
2022-11-06T21:40:06.302Z,56.20
2022-11-06T21:42:37.226Z,38.50
2022-11-06T21:45:14.588Z,37.40
2022-11-06T21:47:46.774Z,43.50
2022-11-06T21:50:28.271Z,28.40
2022-11-06T21:53:19.620Z,21.90
2022-11-06T21:56:02.844Z,17.80
2022-11-06T21:58:35.072Z,17.30
2022-11-06T22:01:07.718Z,15.50
2022-11-06T22:03:41.016Z,16.00
2022-11-06T22:06:15.540Z,17.60
2022-11-06T22:08:48.175Z,19.50
2022-11-06T22:11:21.807Z,16.50
2022-11-06T22:13:54.289Z,19.60
2022-11-06T22:16:27.963Z,18.20
2022-11-06T22:18:59.665Z,21.20
2022-11-06T22:21:32.011Z,27.00
2022-11-06T22:24:03.386Z,36.00
2022-11-06T22:26:36.343Z,37.10
2022-11-06T22:29:09.396Z,29.10
2022-11-06T22:31:40.204Z,26.50
2022-11-06T22:34:12.300Z,90.50
2022-11-06T22:36:43.687Z,38.70
2022-11-06T22:41:44.658Z,43.10
2022-11-06T22:44:15.615Z,46.40
2022-11-06T22:46:47.006Z,28.90
2022-11-06T22:49:18.276Z,25.90
2022-11-06T22:51:49.411Z,26.80
2022-11-06T22:54:20.602Z,30.80
2022-11-06T22:56:51.855Z,34.60
2022-11-06T22:59:22.795Z,28.20
2022-11-06T23:01:53.977Z,28.20
2022-11-06T23:04:24.851Z,25.20
2022-11-06T23:06:55.705Z,30.80
2022-11-06T23:09:27.068Z,30.90
2022-11-06T23:11:57.807Z,24.80
2022-11-06T23:14:29.248Z,23.40
2022-11-06T23:17:01.025Z,23.20
2022-11-06T23:19:33.796Z,20.80
2022-11-06T23:22:22.365Z,30.10
2022-11-06T23:24:56.097Z,24.10
2022-11-06T23:27:27.393Z,22.20
2022-11-06T23:30:00.716Z,21.30
2022-11-06T23:32:32.884Z,22.70
2022-11-06T23:35:04.766Z,19.70
2022-11-06T23:37:35.981Z,20.20
2022-11-06T23:40:09.403Z,19.90
2022-11-06T23:42:40.836Z,40.50
2022-11-06T23:45:31.008Z,12.10
2022-11-06T23:48:07.447Z,15.10
2022-11-06T23:50:39.610Z,17.40
2022-11-06T23:53:10.685Z,17.90
2022-11-06T23:55:42.125Z,17.00
2022-11-06T23:58:13.315Z,23.60
